sensor_id;sensor_type;location;lat;lon;timestamp;temperature;humidity
8595;DHT22;4335;48.860;9.198;2023-01-08T00:01:14;6.40;99.90
8595;DHT22;4335;48.860;9.198;2023-01-08T00:03:43;6.40;99.90
8595;DHT22;4335;48.860;9.198;2023-01-08T00:06:13;6.40;99.90
8595;DHT22;4335;48.860;9.198;2023-01-08T00:08:40;6.40;99.90
8595;DHT22;4335;48.860;9.198;2023-01-08T00:11:07;6.40;99.90
8595;DHT22;4335;48.860;9.198;2023-01-08T00:13:34;6.40;99.90
8595;DHT22;4335;48.860;9.198;2023-01-08T00:16:02;6.30;99.90
8595;DHT22;4335;48.860;9.198;2023-01-08T00:18:32;6.30;99.90
8595;DHT22;4335;48.860;9.198;2023-01-08T00:21:00;6.30;99.90
8595;DHT22;4335;48.860;9.198;2023-01-08T00:23:30;6.30;99.90
8595;DHT22;4335;48.860;9.198;2023-01-08T00:26:00;6.30;99.90
8595;DHT22;4335;48.860;9.198;2023-01-08T00:28:27;6.30;99.90
8595;DHT22;4335;48.860;9.198;2023-01-08T00:30:54;6.40;99.90
8595;DHT22;4335;48.860;9.198;2023-01-08T00:33:27;6.50;99.90
8595;DHT22;4335;48.860;9.198;2023-01-08T00:35:53;6.50;99.90
8595;DHT22;4335;48.860;9.198;2023-01-08T00:38:27;6.50;99.90
8595;DHT22;4335;48.860;9.198;2023-01-08T00:40:57;6.40;99.90
8595;DHT22;4335;48.860;9.198;2023-01-08T00:43:26;6.50;99.90
8595;DHT22;4335;48.860;9.198;2023-01-08T00:45:59;6.50;99.90
8595;DHT22;4335;48.860;9.198;2023-01-08T00:48:39;6.50;99.90
8595;DHT22;4335;48.860;9.198;2023-01-08T00:51:07;6.40;99.90
8595;DHT22;4335;48.860;9.198;2023-01-08T00:53:34;6.50;99.90
8595;DHT22;4335;48.860;9.198;2023-01-08T00:56:02;6.60;99.90
8595;DHT22;4335;48.860;9.198;2023-01-08T00:58:29;6.60;99.90
8595;DHT22;4335;48.860;9.198;2023-01-08T01:00:56;6.60;99.90
8595;DHT22;4335;48.860;9.198;2023-01-08T01:03:23;6.60;99.90
8595;DHT22;4335;48.860;9.198;2023-01-08T01:06:06;6.50;99.90
8595;DHT22;4335;48.860;9.198;2023-01-08T01:08:43;6.60;99.90
8595;DHT22;4335;48.860;9.198;2023-01-08T01:11:17;6.50;99.90
8595;DHT22;4335;48.860;9.198;2023-01-08T01:13:44;6.50;99.90
8595;DHT22;4335;48.860;9.198;2023-01-08T01:16:17;6.50;99.90
8595;DHT22;4335;48.860;9.198;2023-01-08T01:18:47;6.50;99.90
8595;DHT22;4335;48.860;9.198;2023-01-08T01:21:20;6.60;99.90
8595;DHT22;4335;48.860;9.198;2023-01-08T01:23:52;6.60;99.90
8595;DHT22;4335;48.860;9.198;2023-01-08T01:26:24;6.60;99.90
8595;DHT22;4335;48.860;9.198;2023-01-08T01:28:52;6.60;99.90
8595;DHT22;4335;48.860;9.198;2023-01-08T01:31:19;6.50;99.90
8595;DHT22;4335;48.860;9.198;2023-01-08T01:33:46;6.50;99.90
8595;DHT22;4335;48.860;9.198;2023-01-08T01:36:20;6.50;99.90
8595;DHT22;4335;48.860;9.198;2023-01-08T01:38:53;6.50;99.90
8595;DHT22;4335;48.860;9.198;2023-01-08T01:41:24;6.60;99.90
8595;DHT22;4335;48.860;9.198;2023-01-08T01:43:52;6.70;99.90
8595;DHT22;4335;48.860;9.198;2023-01-08T01:46:33;6.70;99.90
8595;DHT22;4335;48.860;9.198;2023-01-08T01:49:10;6.60;99.90
8595;DHT22;4335;48.860;9.198;2023-01-08T01:51:42;6.60;99.90
8595;DHT22;4335;48.860;9.198;2023-01-08T01:54:11;6.60;99.90
8595;DHT22;4335;48.860;9.198;2023-01-08T01:56:39;6.60;99.90
8595;DHT22;4335;48.860;9.198;2023-01-08T01:59:06;6.60;99.90
8595;DHT22;4335;48.860;9.198;2023-01-08T02:01:33;6.60;99.90
8595;DHT22;4335;48.860;9.198;2023-01-08T02:04:00;6.50;99.90
8595;DHT22;4335;48.860;9.198;2023-01-08T02:06:35;6.50;99.90
8595;DHT22;4335;48.860;9.198;2023-01-08T02:09:08;6.50;99.90
8595;DHT22;4335;48.860;9.198;2023-01-08T02:11:45;6.50;99.90
8595;DHT22;4335;48.860;9.198;2023-01-08T02:14:16;6.60;99.90
8595;DHT22;4335;48.860;9.198;2023-01-08T02:16:47;6.60;99.90
8595;DHT22;4335;48.860;9.198;2023-01-08T02:19:21;6.70;99.90
8595;DHT22;4335;48.860;9.198;2023-01-08T02:22:01;6.70;99.90
8595;DHT22;4335;48.860;9.198;2023-01-08T02:24:44;6.70;99.90
8595;DHT22;4335;48.860;9.198;2023-01-08T02:27:13;6.60;99.90
8595;DHT22;4335;48.860;9.198;2023-01-08T02:29:42;6.60;99.90
8595;DHT22;4335;48.860;9.198;2023-01-08T02:32:09;6.60;99.90
8595;DHT22;4335;48.860;9.198;2023-01-08T02:34:40;6.50;99.90
8595;DHT22;4335;48.860;9.198;2023-01-08T02:37:08;6.50;99.90
8595;DHT22;4335;48.860;9.198;2023-01-08T02:39:58;6.60;99.90
8595;DHT22;4335;48.860;9.198;2023-01-08T02:42:34;6.60;99.90
8595;DHT22;4335;48.860;9.198;2023-01-08T02:45:06;6.60;99.90
8595;DHT22;4335;48.860;9.198;2023-01-08T02:47:40;6.60;99.90
8595;DHT22;4335;48.860;9.198;2023-01-08T02:50:12;6.60;99.90
8595;DHT22;4335;48.860;9.198;2023-01-08T02:52:45;6.60;99.90
8595;DHT22;4335;48.860;9.198;2023-01-08T02:55:15;6.50;99.90
8595;DHT22;4335;48.860;9.198;2023-01-08T02:57:43;6.50;99.90
8595;DHT22;4335;48.860;9.198;2023-01-08T03:00:11;6.50;99.90
8595;DHT22;4335;48.860;9.198;2023-01-08T03:02:40;6.50;99.90
8595;DHT22;4335;48.860;9.198;2023-01-08T03:05:13;6.50;99.90
8595;DHT22;4335;48.860;9.198;2023-01-08T03:07:41;6.50;99.90
8595;DHT22;4335;48.860;9.198;2023-01-08T03:10:09;6.60;99.90
8595;DHT22;4335;48.860;9.198;2023-01-08T03:12:44;6.60;99.90
8595;DHT22;4335;48.860;9.198;2023-01-08T03:15:20;6.60;99.90
8595;DHT22;4335;48.860;9.198;2023-01-08T03:17:50;6.60;99.90
8595;DHT22;4335;48.860;9.198;2023-01-08T03:20:19;6.60;99.90
8595;DHT22;4335;48.860;9.198;2023-01-08T03:22:52;6.70;99.90
8595;DHT22;4335;48.860;9.198;2023-01-08T03:25:21;6.60;99.90
8595;DHT22;4335;48.860;9.198;2023-01-08T03:27:59;6.60;99.90
8595;DHT22;4335;48.860;9.198;2023-01-08T03:30:27;6.70;99.90
8595;DHT22;4335;48.860;9.198;2023-01-08T03:32:58;6.70;99.90
8595;DHT22;4335;48.860;9.198;2023-01-08T03:35:27;6.70;99.90
8595;DHT22;4335;48.860;9.198;2023-01-08T03:38:02;6.80;99.90
8595;DHT22;4335;48.860;9.198;2023-01-08T03:40:34;6.80;99.90
8595;DHT22;4335;48.860;9.198;2023-01-08T03:43:03;6.80;99.90
8595;DHT22;4335;48.860;9.198;2023-01-08T03:45:31;6.70;99.90
8595;DHT22;4335;48.860;9.198;2023-01-08T03:47:59;6.70;99.90
8595;DHT22;4335;48.860;9.198;2023-01-08T03:50:30;6.70;99.90
8595;DHT22;4335;48.860;9.198;2023-01-08T03:52:57;6.80;99.90
8595;DHT22;4335;48.860;9.198;2023-01-08T03:55:24;6.80;99.90
8595;DHT22;4335;48.860;9.198;2023-01-08T03:57:51;6.80;99.90
8595;DHT22;4335;48.860;9.198;2023-01-08T04:00:18;6.80;99.90
8595;DHT22;4335;48.860;9.198;2023-01-08T04:02:45;6.80;99.90
8595;DHT22;4335;48.860;9.198;2023-01-08T04:05:12;6.80;99.90
8595;DHT22;4335;48.860;9.198;2023-01-08T04:07:38;6.80;99.90
8595;DHT22;4335;48.860;9.198;2023-01-08T04:10:06;6.80;99.90
8595;DHT22;4335;48.860;9.198;2023-01-08T04:12:40;6.80;99.90
8595;DHT22;4335;48.860;9.198;2023-01-08T04:15:08;6.80;99.90
8595;DHT22;4335;48.860;9.198;2023-01-08T04:17:36;6.90;99.90
8595;DHT22;4335;48.860;9.198;2023-01-08T04:20:03;6.90;99.90
8595;DHT22;4335;48.860;9.198;2023-01-08T04:22:30;6.90;99.90
8595;DHT22;4335;48.860;9.198;2023-01-08T04:24:57;6.80;99.90
8595;DHT22;4335;48.860;9.198;2023-01-08T04:27:23;6.80;99.90
8595;DHT22;4335;48.860;9.198;2023-01-08T04:29:53;6.80;99.90
8595;DHT22;4335;48.860;9.198;2023-01-08T04:32:19;6.80;99.90
8595;DHT22;4335;48.860;9.198;2023-01-08T04:34:47;6.90;99.90
8595;DHT22;4335;48.860;9.198;2023-01-08T04:37:16;6.80;99.90
8595;DHT22;4335;48.860;9.198;2023-01-08T04:39:43;6.80;99.90
8595;DHT22;4335;48.860;9.198;2023-01-08T04:42:10;6.80;99.90
8595;DHT22;4335;48.860;9.198;2023-01-08T04:44:39;6.80;99.90
8595;DHT22;4335;48.860;9.198;2023-01-08T04:47:06;6.80;99.90
8595;DHT22;4335;48.860;9.198;2023-01-08T04:49:33;6.80;99.90
8595;DHT22;4335;48.860;9.198;2023-01-08T04:52:00;6.90;99.90
8595;DHT22;4335;48.860;9.198;2023-01-08T04:54:27;6.90;99.90
8595;DHT22;4335;48.860;9.198;2023-01-08T04:56:53;6.90;99.90
8595;DHT22;4335;48.860;9.198;2023-01-08T04:59:20;7.00;99.90
8595;DHT22;4335;48.860;9.198;2023-01-08T05:01:47;7.00;99.90
8595;DHT22;4335;48.860;9.198;2023-01-08T05:04:13;7.00;99.90
8595;DHT22;4335;48.860;9.198;2023-01-08T05:06:40;7.10;99.90
8595;DHT22;4335;48.860;9.198;2023-01-08T05:09:08;7.10;99.90
8595;DHT22;4335;48.860;9.198;2023-01-08T05:11:34;7.20;99.90
8595;DHT22;4335;48.860;9.198;2023-01-08T05:14:04;7.20;99.90
8595;DHT22;4335;48.860;9.198;2023-01-08T05:16:34;7.40;99.90
8595;DHT22;4335;48.860;9.198;2023-01-08T05:19:01;7.70;99.90
8595;DHT22;4335;48.860;9.198;2023-01-08T05:21:28;8.00;99.90
8595;DHT22;4335;48.860;9.198;2023-01-08T05:23:54;8.20;99.90
8595;DHT22;4335;48.860;9.198;2023-01-08T05:26:25;8.40;99.90
8595;DHT22;4335;48.860;9.198;2023-01-08T05:28:54;8.60;99.90
8595;DHT22;4335;48.860;9.198;2023-01-08T05:31:21;8.70;99.90
8595;DHT22;4335;48.860;9.198;2023-01-08T05:33:48;8.80;99.90
8595;DHT22;4335;48.860;9.198;2023-01-08T05:36:17;8.80;99.90
8595;DHT22;4335;48.860;9.198;2023-01-08T05:38:44;8.90;99.90
8595;DHT22;4335;48.860;9.198;2023-01-08T05:41:13;9.00;99.90
8595;DHT22;4335;48.860;9.198;2023-01-08T05:43:41;9.00;99.90
8595;DHT22;4335;48.860;9.198;2023-01-08T05:46:08;9.10;99.90
8595;DHT22;4335;48.860;9.198;2023-01-08T05:48:34;9.20;99.90
8595;DHT22;4335;48.860;9.198;2023-01-08T05:51:05;9.20;99.90
8595;DHT22;4335;48.860;9.198;2023-01-08T05:53:32;9.20;99.90
8595;DHT22;4335;48.860;9.198;2023-01-08T05:55:59;9.30;99.90
8595;DHT22;4335;48.860;9.198;2023-01-08T05:58:26;9.30;99.90
8595;DHT22;4335;48.860;9.198;2023-01-08T06:00:54;9.30;99.90
8595;DHT22;4335;48.860;9.198;2023-01-08T06:03:28;9.30;99.90
8595;DHT22;4335;48.860;9.198;2023-01-08T06:05:57;9.30;99.90
8595;DHT22;4335;48.860;9.198;2023-01-08T06:08:24;9.20;99.90
8595;DHT22;4335;48.860;9.198;2023-01-08T06:10:51;9.20;99.90
8595;DHT22;4335;48.860;9.198;2023-01-08T06:13:18;9.20;99.90
8595;DHT22;4335;48.860;9.198;2023-01-08T06:15:44;9.20;99.90
8595;DHT22;4335;48.860;9.198;2023-01-08T06:18:14;9.20;99.90
8595;DHT22;4335;48.860;9.198;2023-01-08T06:20:43;9.10;99.90
8595;DHT22;4335;48.860;9.198;2023-01-08T06:23:10;9.10;99.90
8595;DHT22;4335;48.860;9.198;2023-01-08T06:25:37;9.20;99.90
8595;DHT22;4335;48.860;9.198;2023-01-08T06:28:04;9.10;99.90
8595;DHT22;4335;48.860;9.198;2023-01-08T06:30:31;9.10;99.90
8595;DHT22;4335;48.860;9.198;2023-01-08T06:32:58;9.10;99.90
8595;DHT22;4335;48.860;9.198;2023-01-08T06:35:26;9.10;99.90
8595;DHT22;4335;48.860;9.198;2023-01-08T06:37:54;9.10;99.90
8595;DHT22;4335;48.860;9.198;2023-01-08T06:40:20;9.10;99.90
8595;DHT22;4335;48.860;9.198;2023-01-08T06:42:47;9.10;99.90
8595;DHT22;4335;48.860;9.198;2023-01-08T06:45:14;9.10;99.90
8595;DHT22;4335;48.860;9.198;2023-01-08T06:47:41;9.10;99.90
8595;DHT22;4335;48.860;9.198;2023-01-08T06:50:10;9.10;99.90
8595;DHT22;4335;48.860;9.198;2023-01-08T06:52:38;9.20;99.90
8595;DHT22;4335;48.860;9.198;2023-01-08T06:55:05;9.20;99.90
8595;DHT22;4335;48.860;9.198;2023-01-08T06:57:32;9.20;99.90
8595;DHT22;4335;48.860;9.198;2023-01-08T06:59:58;9.20;99.90
8595;DHT22;4335;48.860;9.198;2023-01-08T07:02:25;9.20;99.90
8595;DHT22;4335;48.860;9.198;2023-01-08T07:04:52;9.20;99.90
8595;DHT22;4335;48.860;9.198;2023-01-08T07:07:21;9.20;99.90
8595;DHT22;4335;48.860;9.198;2023-01-08T07:09:51;9.30;99.90
8595;DHT22;4335;48.860;9.198;2023-01-08T07:12:18;9.20;99.90
8595;DHT22;4335;48.860;9.198;2023-01-08T07:14:45;9.30;99.90
8595;DHT22;4335;48.860;9.198;2023-01-08T07:17:11;9.30;99.90
8595;DHT22;4335;48.860;9.198;2023-01-08T07:19:38;9.30;99.90
8595;DHT22;4335;48.860;9.198;2023-01-08T07:22:05;9.30;99.90
8595;DHT22;4335;48.860;9.198;2023-01-08T07:24:31;9.30;99.90
8595;DHT22;4335;48.860;9.198;2023-01-08T07:26:59;9.30;99.90
8595;DHT22;4335;48.860;9.198;2023-01-08T07:29:25;9.40;99.90
8595;DHT22;4335;48.860;9.198;2023-01-08T07:31:52;9.40;99.90
8595;DHT22;4335;48.860;9.198;2023-01-08T07:34:19;9.40;99.90
8595;DHT22;4335;48.860;9.198;2023-01-08T07:36:46;9.50;99.90
8595;DHT22;4335;48.860;9.198;2023-01-08T07:39:15;9.50;99.90
8595;DHT22;4335;48.860;9.198;2023-01-08T07:41:42;9.50;99.90
8595;DHT22;4335;48.860;9.198;2023-01-08T07:44:10;9.50;99.90
8595;DHT22;4335;48.860;9.198;2023-01-08T07:46:37;9.50;99.90
8595;DHT22;4335;48.860;9.198;2023-01-08T07:49:07;9.40;99.90
8595;DHT22;4335;48.860;9.198;2023-01-08T07:51:34;9.40;99.90
8595;DHT22;4335;48.860;9.198;2023-01-08T07:54:07;9.40;99.90
8595;DHT22;4335;48.860;9.198;2023-01-08T07:56:33;9.40;99.90
8595;DHT22;4335;48.860;9.198;2023-01-08T07:59:03;9.40;99.90
8595;DHT22;4335;48.860;9.198;2023-01-08T08:01:30;9.30;99.90
8595;DHT22;4335;48.860;9.198;2023-01-08T08:03:57;9.30;99.90
8595;DHT22;4335;48.860;9.198;2023-01-08T08:06:24;9.30;99.90
8595;DHT22;4335;48.860;9.198;2023-01-08T08:08:56;9.30;99.90
8595;DHT22;4335;48.860;9.198;2023-01-08T08:11:25;9.30;99.90
8595;DHT22;4335;48.860;9.198;2023-01-08T08:13:52;9.30;99.90
8595;DHT22;4335;48.860;9.198;2023-01-08T08:16:19;9.30;99.90
8595;DHT22;4335;48.860;9.198;2023-01-08T08:18:46;9.20;99.90
8595;DHT22;4335;48.860;9.198;2023-01-08T08:21:16;9.20;99.90
8595;DHT22;4335;48.860;9.198;2023-01-08T08:23:42;9.20;99.90
8595;DHT22;4335;48.860;9.198;2023-01-08T08:26:10;9.10;99.90
8595;DHT22;4335;48.860;9.198;2023-01-08T08:28:36;9.10;99.90
8595;DHT22;4335;48.860;9.198;2023-01-08T08:31:03;9.10;99.90
8595;DHT22;4335;48.860;9.198;2023-01-08T08:33:30;9.10;99.90
8595;DHT22;4335;48.860;9.198;2023-01-08T08:36:01;9.10;99.90
8595;DHT22;4335;48.860;9.198;2023-01-08T08:38:27;9.10;99.90
8595;DHT22;4335;48.860;9.198;2023-01-08T08:40:54;9.10;99.90
8595;DHT22;4335;48.860;9.198;2023-01-08T08:43:21;9.10;99.90
8595;DHT22;4335;48.860;9.198;2023-01-08T08:45:49;9.20;99.90
8595;DHT22;4335;48.860;9.198;2023-01-08T08:48:16;9.10;99.90
8595;DHT22;4335;48.860;9.198;2023-01-08T08:50:42;9.10;99.90
8595;DHT22;4335;48.860;9.198;2023-01-08T08:53:10;9.20;99.90
8595;DHT22;4335;48.860;9.198;2023-01-08T08:55:36;9.20;99.90
8595;DHT22;4335;48.860;9.198;2023-01-08T08:58:05;9.20;99.90
8595;DHT22;4335;48.860;9.198;2023-01-08T09:00:33;9.10;99.90
8595;DHT22;4335;48.860;9.198;2023-01-08T09:02:59;9.10;99.90
8595;DHT22;4335;48.860;9.198;2023-01-08T09:05:29;9.20;99.90
8595;DHT22;4335;48.860;9.198;2023-01-08T09:08:03;9.20;99.90
8595;DHT22;4335;48.860;9.198;2023-01-08T09:10:30;9.20;99.90
8595;DHT22;4335;48.860;9.198;2023-01-08T09:12:57;9.10;99.90
8595;DHT22;4335;48.860;9.198;2023-01-08T09:15:26;9.20;99.90
8595;DHT22;4335;48.860;9.198;2023-01-08T09:17:54;9.20;99.90
8595;DHT22;4335;48.860;9.198;2023-01-08T09:20:21;9.20;99.90
8595;DHT22;4335;48.860;9.198;2023-01-08T09:22:47;9.20;99.90
8595;DHT22;4335;48.860;9.198;2023-01-08T09:25:15;9.20;99.90
8595;DHT22;4335;48.860;9.198;2023-01-08T09:27:42;9.30;99.90
8595;DHT22;4335;48.860;9.198;2023-01-08T09:30:10;9.30;99.90
8595;DHT22;4335;48.860;9.198;2023-01-08T09:32:43;9.30;99.90
8595;DHT22;4335;48.860;9.198;2023-01-08T09:35:10;9.30;99.90
8595;DHT22;4335;48.860;9.198;2023-01-08T09:37:39;9.30;99.90
8595;DHT22;4335;48.860;9.198;2023-01-08T09:40:08;9.30;99.90
8595;DHT22;4335;48.860;9.198;2023-01-08T09:42:38;9.30;99.90
8595;DHT22;4335;48.860;9.198;2023-01-08T09:45:15;9.30;99.90
8595;DHT22;4335;48.860;9.198;2023-01-08T09:47:45;9.40;99.90
8595;DHT22;4335;48.860;9.198;2023-01-08T09:50:26;9.40;99.90
8595;DHT22;4335;48.860;9.198;2023-01-08T09:52:53;9.40;99.90
8595;DHT22;4335;48.860;9.198;2023-01-08T09:55:23;9.40;99.90
8595;DHT22;4335;48.860;9.198;2023-01-08T09:57:50;9.40;99.90
8595;DHT22;4335;48.860;9.198;2023-01-08T10:00:21;9.40;99.90
8595;DHT22;4335;48.860;9.198;2023-01-08T10:02:50;9.40;99.90
8595;DHT22;4335;48.860;9.198;2023-01-08T10:05:19;9.40;99.90
8595;DHT22;4335;48.860;9.198;2023-01-08T10:07:49;9.40;99.90
8595;DHT22;4335;48.860;9.198;2023-01-08T10:10:21;9.50;99.90
8595;DHT22;4335;48.860;9.198;2023-01-08T10:12:48;9.50;99.90
8595;DHT22;4335;48.860;9.198;2023-01-08T10:15:18;9.60;99.90
8595;DHT22;4335;48.860;9.198;2023-01-08T10:17:47;9.60;99.90
8595;DHT22;4335;48.860;9.198;2023-01-08T10:20:16;9.70;99.90
8595;DHT22;4335;48.860;9.198;2023-01-08T10:22:44;9.70;99.90
8595;DHT22;4335;48.860;9.198;2023-01-08T10:25:14;9.70;99.90
8595;DHT22;4335;48.860;9.198;2023-01-08T10:27:46;9.80;99.90
8595;DHT22;4335;48.860;9.198;2023-01-08T10:30:21;9.80;99.90
8595;DHT22;4335;48.860;9.198;2023-01-08T10:32:52;9.90;99.90
8595;DHT22;4335;48.860;9.198;2023-01-08T10:35:22;9.90;99.90
8595;DHT22;4335;48.860;9.198;2023-01-08T10:37:49;9.90;99.90
8595;DHT22;4335;48.860;9.198;2023-01-08T10:40:26;10.00;99.90
8595;DHT22;4335;48.860;9.198;2023-01-08T10:42:55;10.00;99.90
8595;DHT22;4335;48.860;9.198;2023-01-08T10:45:27;10.10;99.90
8595;DHT22;4335;48.860;9.198;2023-01-08T10:47:56;10.20;99.90
8595;DHT22;4335;48.860;9.198;2023-01-08T10:50:33;10.20;99.90
8595;DHT22;4335;48.860;9.198;2023-01-08T10:53:01;10.30;99.90
8595;DHT22;4335;48.860;9.198;2023-01-08T10:55:29;10.30;99.90
8595;DHT22;4335;48.860;9.198;2023-01-08T10:57:58;10.20;99.90
8595;DHT22;4335;48.860;9.198;2023-01-08T11:00:27;10.20;99.90
8595;DHT22;4335;48.860;9.198;2023-01-08T11:02:55;10.30;99.90
8595;DHT22;4335;48.860;9.198;2023-01-08T11:05:33;10.30;99.90
8595;DHT22;4335;48.860;9.198;2023-01-08T11:08:03;10.30;99.90
8595;DHT22;4335;48.860;9.198;2023-01-08T11:10:33;10.40;99.90
8595;DHT22;4335;48.860;9.198;2023-01-08T11:13:01;10.40;99.90
8595;DHT22;4335;48.860;9.198;2023-01-08T11:15:35;10.50;99.90
8595;DHT22;4335;48.860;9.198;2023-01-08T11:18:09;10.60;99.90
8595;DHT22;4335;48.860;9.198;2023-01-08T11:20:37;10.60;99.90
8595;DHT22;4335;48.860;9.198;2023-01-08T11:23:05;10.70;99.90
8595;DHT22;4335;48.860;9.198;2023-01-08T11:25:33;10.80;99.90
8595;DHT22;4335;48.860;9.198;2023-01-08T11:28:01;10.80;99.90
8595;DHT22;4335;48.860;9.198;2023-01-08T11:30:30;10.90;99.90
8595;DHT22;4335;48.860;9.198;2023-01-08T11:33:03;10.80;99.90
8595;DHT22;4335;48.860;9.198;2023-01-08T11:35:35;10.90;99.90
8595;DHT22;4335;48.860;9.198;2023-01-08T11:38:03;10.90;99.90
8595;DHT22;4335;48.860;9.198;2023-01-08T11:40:37;11.00;99.90
8595;DHT22;4335;48.860;9.198;2023-01-08T11:43:17;10.90;99.90
8595;DHT22;4335;48.860;9.198;2023-01-08T11:46:00;11.10;99.90
8595;DHT22;4335;48.860;9.198;2023-01-08T11:48:54;11.00;99.90
8595;DHT22;4335;48.860;9.198;2023-01-08T11:51:40;11.00;99.90
8595;DHT22;4335;48.860;9.198;2023-01-08T11:54:18;11.10;99.90
8595;DHT22;4335;48.860;9.198;2023-01-08T11:56:59;11.20;99.90
8595;DHT22;4335;48.860;9.198;2023-01-08T11:59:32;11.20;99.90
8595;DHT22;4335;48.860;9.198;2023-01-08T12:02:19;11.30;99.90
8595;DHT22;4335;48.860;9.198;2023-01-08T12:07:45;11.30;99.90
8595;DHT22;4335;48.860;9.198;2023-01-08T12:10:22;11.30;99.90
8595;DHT22;4335;48.860;9.198;2023-01-08T12:13:00;11.20;99.90
8595;DHT22;4335;48.860;9.198;2023-01-08T12:15:40;11.10;99.90
8595;DHT22;4335;48.860;9.198;2023-01-08T12:18:34;11.10;99.90
8595;DHT22;4335;48.860;9.198;2023-01-08T12:21:07;11.00;99.90
8595;DHT22;4335;48.860;9.198;2023-01-08T12:24:01;10.90;99.90
8595;DHT22;4335;48.860;9.198;2023-01-08T12:26:41;10.90;99.90
8595;DHT22;4335;48.860;9.198;2023-01-08T12:29:33;11.00;99.90
8595;DHT22;4335;48.860;9.198;2023-01-08T12:32:18;11.00;99.90
8595;DHT22;4335;48.860;9.198;2023-01-08T12:34:52;11.00;99.90
8595;DHT22;4335;48.860;9.198;2023-01-08T12:37:25;11.10;99.90
8595;DHT22;4335;48.860;9.198;2023-01-08T12:39:56;11.00;99.90
8595;DHT22;4335;48.860;9.198;2023-01-08T12:42:28;11.00;99.90
8595;DHT22;4335;48.860;9.198;2023-01-08T12:44:59;11.00;99.90
8595;DHT22;4335;48.860;9.198;2023-01-08T12:47:29;10.90;99.90
8595;DHT22;4335;48.860;9.198;2023-01-08T12:50:09;11.00;99.90
8595;DHT22;4335;48.860;9.198;2023-01-08T12:52:47;11.00;99.90
8595;DHT22;4335;48.860;9.198;2023-01-08T12:55:30;11.00;99.90
8595;DHT22;4335;48.860;9.198;2023-01-08T12:58:04;11.00;99.90
8595;DHT22;4335;48.860;9.198;2023-01-08T13:00:39;11.00;99.90
8595;DHT22;4335;48.860;9.198;2023-01-08T13:03:11;11.10;99.90
8595;DHT22;4335;48.860;9.198;2023-01-08T13:05:47;11.20;99.90
8595;DHT22;4335;48.860;9.198;2023-01-08T13:08:30;11.20;99.90
8595;DHT22;4335;48.860;9.198;2023-01-08T13:10:57;11.20;99.90
8595;DHT22;4335;48.860;9.198;2023-01-08T13:13:28;11.20;99.90
8595;DHT22;4335;48.860;9.198;2023-01-08T13:16:18;11.20;99.90
8595;DHT22;4335;48.860;9.198;2023-01-08T13:18:56;11.20;99.90
8595;DHT22;4335;48.860;9.198;2023-01-08T13:21:34;11.20;99.90
8595;DHT22;4335;48.860;9.198;2023-01-08T13:24:05;11.10;99.90
8595;DHT22;4335;48.860;9.198;2023-01-08T13:26:34;11.00;99.90
8595;DHT22;4335;48.860;9.198;2023-01-08T13:29:22;11.10;99.90
8595;DHT22;4335;48.860;9.198;2023-01-08T13:31:49;11.10;99.90
8595;DHT22;4335;48.860;9.198;2023-01-08T13:34:22;11.00;99.90
8595;DHT22;4335;48.860;9.198;2023-01-08T13:37:00;11.00;99.90
8595;DHT22;4335;48.860;9.198;2023-01-08T13:39:37;11.00;99.90
8595;DHT22;4335;48.860;9.198;2023-01-08T13:42:20;10.90;99.90
8595;DHT22;4335;48.860;9.198;2023-01-08T13:44:49;10.90;99.90
8595;DHT22;4335;48.860;9.198;2023-01-08T13:47:21;10.90;99.90
8595;DHT22;4335;48.860;9.198;2023-01-08T13:49:51;10.90;99.90
8595;DHT22;4335;48.860;9.198;2023-01-08T13:52:36;10.90;99.90
8595;DHT22;4335;48.860;9.198;2023-01-08T13:55:15;10.80;99.90
8595;DHT22;4335;48.860;9.198;2023-01-08T13:57:45;10.90;99.90
8595;DHT22;4335;48.860;9.198;2023-01-08T14:00:23;10.90;99.90
8595;DHT22;4335;48.860;9.198;2023-01-08T14:02:50;11.00;99.90
8595;DHT22;4335;48.860;9.198;2023-01-08T14:05:29;10.90;99.90
8595;DHT22;4335;48.860;9.198;2023-01-08T14:07:59;10.90;99.90
8595;DHT22;4335;48.860;9.198;2023-01-08T14:10:28;10.90;99.90
8595;DHT22;4335;48.860;9.198;2023-01-08T14:13:00;11.00;99.90
8595;DHT22;4335;48.860;9.198;2023-01-08T14:15:34;11.00;99.90
8595;DHT22;4335;48.860;9.198;2023-01-08T14:18:04;11.10;99.90
8595;DHT22;4335;48.860;9.198;2023-01-08T14:20:35;11.20;99.90
8595;DHT22;4335;48.860;9.198;2023-01-08T14:23:10;11.30;99.90
8595;DHT22;4335;48.860;9.198;2023-01-08T14:25:41;11.40;99.90
8595;DHT22;4335;48.860;9.198;2023-01-08T14:28:18;11.50;99.90
8595;DHT22;4335;48.860;9.198;2023-01-08T14:30:48;11.40;99.90
8595;DHT22;4335;48.860;9.198;2023-01-08T14:33:16;11.30;99.90
8595;DHT22;4335;48.860;9.198;2023-01-08T14:35:44;11.30;99.90
8595;DHT22;4335;48.860;9.198;2023-01-08T14:38:15;11.20;99.90
8595;DHT22;4335;48.860;9.198;2023-01-08T14:40:46;11.20;99.90
8595;DHT22;4335;48.860;9.198;2023-01-08T14:43:14;11.10;99.90
8595;DHT22;4335;48.860;9.198;2023-01-08T14:45:45;11.10;99.90
8595;DHT22;4335;48.860;9.198;2023-01-08T14:48:21;11.00;99.90
8595;DHT22;4335;48.860;9.198;2023-01-08T14:51:00;11.00;99.90
8595;DHT22;4335;48.860;9.198;2023-01-08T14:53:29;11.00;99.90
8595;DHT22;4335;48.860;9.198;2023-01-08T14:55:58;11.00;99.90
8595;DHT22;4335;48.860;9.198;2023-01-08T14:58:28;11.00;99.90
8595;DHT22;4335;48.860;9.198;2023-01-08T15:01:07;11.00;99.90
8595;DHT22;4335;48.860;9.198;2023-01-08T15:03:41;10.90;99.90
8595;DHT22;4335;48.860;9.198;2023-01-08T15:06:08;10.90;99.90
8595;DHT22;4335;48.860;9.198;2023-01-08T15:08:37;10.90;99.90
8595;DHT22;4335;48.860;9.198;2023-01-08T15:11:08;10.90;99.90
8595;DHT22;4335;48.860;9.198;2023-01-08T15:13:40;10.90;99.90
8595;DHT22;4335;48.860;9.198;2023-01-08T15:16:09;10.80;99.90
8595;DHT22;4335;48.860;9.198;2023-01-08T15:18:42;10.80;99.90
8595;DHT22;4335;48.860;9.198;2023-01-08T15:21:16;10.80;99.90
8595;DHT22;4335;48.860;9.198;2023-01-08T15:23:47;10.80;99.90
8595;DHT22;4335;48.860;9.198;2023-01-08T15:26:18;10.70;99.90
8595;DHT22;4335;48.860;9.198;2023-01-08T15:28:48;10.70;99.90
8595;DHT22;4335;48.860;9.198;2023-01-08T15:31:27;10.70;99.90
8595;DHT22;4335;48.860;9.198;2023-01-08T15:33:55;10.70;99.90
8595;DHT22;4335;48.860;9.198;2023-01-08T15:36:23;10.70;99.90
8595;DHT22;4335;48.860;9.198;2023-01-08T15:38:51;10.60;99.90
8595;DHT22;4335;48.860;9.198;2023-01-08T15:41:22;10.50;99.90
8595;DHT22;4335;48.860;9.198;2023-01-08T15:44:08;10.40;99.90
8595;DHT22;4335;48.860;9.198;2023-01-08T15:46:40;10.40;99.90
8595;DHT22;4335;48.860;9.198;2023-01-08T15:49:07;10.30;99.90
8595;DHT22;4335;48.860;9.198;2023-01-08T15:51:38;10.20;99.90
8595;DHT22;4335;48.860;9.198;2023-01-08T15:54:11;10.20;99.90
8595;DHT22;4335;48.860;9.198;2023-01-08T15:56:39;10.10;99.90
8595;DHT22;4335;48.860;9.198;2023-01-08T15:59:06;10.10;99.90
8595;DHT22;4335;48.860;9.198;2023-01-08T16:01:33;10.00;99.90
8595;DHT22;4335;48.860;9.198;2023-01-08T16:04:03;10.00;99.90
8595;DHT22;4335;48.860;9.198;2023-01-08T16:06:30;10.00;99.90
8595;DHT22;4335;48.860;9.198;2023-01-08T16:08:57;10.00;99.90
8595;DHT22;4335;48.860;9.198;2023-01-08T16:11:31;9.90;99.90
8595;DHT22;4335;48.860;9.198;2023-01-08T16:13:58;9.90;99.90
8595;DHT22;4335;48.860;9.198;2023-01-08T16:16:25;10.00;99.90
8595;DHT22;4335;48.860;9.198;2023-01-08T16:18:52;9.90;99.90
8595;DHT22;4335;48.860;9.198;2023-01-08T16:21:24;10.00;99.90
8595;DHT22;4335;48.860;9.198;2023-01-08T16:23:51;9.90;99.90
8595;DHT22;4335;48.860;9.198;2023-01-08T16:26:18;10.00;99.90
8595;DHT22;4335;48.860;9.198;2023-01-08T16:28:45;10.00;99.90
8595;DHT22;4335;48.860;9.198;2023-01-08T16:31:15;10.00;99.90
8595;DHT22;4335;48.860;9.198;2023-01-08T16:33:42;10.00;99.90
8595;DHT22;4335;48.860;9.198;2023-01-08T16:36:09;10.00;99.90